AirNav   Pilot Hours Calculator
 
 420 users online  

NH98 Brady-Candia Heliport
Candia, New Hampshire, USA

GOING TO CANDIA?


FAA INFORMATION EFFECTIVE 26 MARCH 2020

Location

FAA Identifier: NH98
Lat/Long: 43-02-38.6300N 071-19-00.0100W
43-02.643833N 071-19.000167W
43.0440639,-71.3166694
(estimated)
Elevation: 470 ft. / 143 m
Time zone: UTC -4 (UTC -5 during Standard Time)
Zip code: 03034

Heliport Operations

Heliport use: Private use. Permission required prior to landing
Activation date: 09/2016
Control tower: no
ARTCC: BOSTON CENTER
FSS: BANGOR FLIGHT SERVICE STATION
Attendance: 
Segmented circle: no

Heliport Communications

WX ASOS at MHT (8 nm SW): 119.55 (603-621-1766)
WX ASOS at CON (13 nm NW): 132.325 (603-224-6558)
WX AWOS-3PT at ASH (18 nm SW): 125.1 (603-578-0473)

Nearby radio navigation aids

VOR radial/distance  VOR name  Freq  Var
MHTr027/10.8MANCHESTER VOR/DME114.4015W
CONr148/15.5CONCORD VOR/DME112.9015W
LWMr347/20.7LAWRENCE VOR/DME112.5015W
PSMr279/21.4PEASE VOR/DME116.5016W
ENEr250/38.3KENNEBUNK VOR/DME117.1017W

 
NDB name  Hdg/Dist  Freq  Var  ID
EPSOM143/7.421616WCO -.-. ---
FITZY056/14.320915WMJ -- .---
ROLLINS260/23.926016WESG . ... --.

Heliport Services

Runway Information

Helipad H1

Dimensions: 33 x 33 ft. / 10 x 10 m
Surface: turf
Latitude: 43-02.643833N
Longitude: 071-19.000167W
Elevation: 470.0 ft.
Traffic pattern: leftleft

Heliport Ownership and Management from official FAA records

Ownership: Privately-owned
Owner: KIMBERLY A BRADY
323 SOUTH ROAD
CANDIA, NH 03034-2434
Phone 603-622-6223
Manager: JARED KAUFMAN
670 N. COMMERCIAL ST SUITE 303
MANCHESTER, NH 03101
Phone 603-622-6223

Additional Remarks

FOR CD CTC BOSTON APCH AT 603-594-5551.

Instrument Procedures

There are no published instrument procedures at NH98.

Some nearby airports with instrument procedures:

KMHT - Manchester Airport (8 nm SW)
KCON - Concord Municipal Airport (13 nm NW)
KASH - Boire Field Airport (18 nm SW)
KLWM - Lawrence Municipal Airport (21 nm SE)
KPSM - Portsmouth International Airport at Pease (22 nm E)
 
Loc | Ops | Rwys | IFR | FBO | Links
Com | Nav | Svcs | Stats | Notes
Aerial photo
No photo
 
Airport distance calculator
Flying to Brady-Candia Heliport? Find the distance to fly.

From to NH98

Sunrise and sunset
Times for 03-Apr-2020
 Local
(UTC-4)
 Zulu
(UTC)
Morning civil twilight05:5409:54
Sunrise06:2310:23
Sunset19:1423:14
Evening civil twilight19:4223:42

Current date and time
Zulu (UTC)  03-Apr-2020 11:10:22
Local (UTC-4)  03-Apr-2020 07:10:22
 
METAR
KMHT 
8nm SW 
031053Z 34011KT 4SM RA BR FEW010 OVC021 07/05 A2954 RMK AO2 SLP019 P0012 T00670050
KCON 
12nm NW 
031051Z AUTO 34007KT 6SM -RA BR OVC021 06/04 A2957 RMK AO2 RAE0957B16 SLP016 P0005 T00560044
KASH 
19nm SW 
031056Z 33009KT 7SM RA BKN008 OVC014 06/06 A2955 RMK AO2 CIG 006V013 SLP014 T00610061
TAF
KMHT 
8nm SW 
030912Z 0309/0406 34013G21KT 6SM -RA BR SCT008 OVC015 FM031400 02015G32KT 5SM RA BR OVC010 FM031900 03015G28KT 6SM -SHRA BR OVC015 FM040000 01012G20KT P6SM SCT025 OVC050
KCON 
12nm NW 
030912Z 0309/0406 33011KT 6SM -RA OVC025 FM031000 36012G20KT 4SM -RA OVC010 FM031400 02013G28KT 5SM RA BR OVC010 FM032000 03013G22KT 6SM -SHRA BR OVC015 FM040100 01010KT P6SM BKN020
NOTAMs
Click for the latest NOTAMs
NOTAMs are issued by the DoD/FAA and will open in a separate window not controlled by AirNav.

 

 
 

Would you like to see your business listed on this page?

 If your business provides an interesting product or service to pilots, flight crews, aircraft, or users of the Brady-Candia Heliport, you should consider listing it here.  To start the listing process, click on the button below
 
Add a business
 

Other Pages about Brady-Candia Heliport

Update a link
 
Copyright © AirNav, LLC. All rights reserved. Privacy Policy  Contact